sensor_id;sensor_type;location;lat;lon;timestamp;pressure;altitude;pressure_sealevel;temperature
72405;BMP280;60395;52.020;113.548;2023-04-03T07:40:06;93310.53;;;0.72
72405;BMP280;60395;52.020;113.548;2023-04-03T07:43:11;93299.16;;;0.59
72405;BMP280;60395;52.020;113.548;2023-04-03T07:46:16;93301.53;;;0.53
72405;BMP280;60395;52.020;113.548;2023-04-03T07:49:20;93308.59;;;0.33
72405;BMP280;60395;52.020;113.548;2023-04-03T07:52:26;93285.81;;;0.27
72405;BMP280;60395;52.020;113.548;2023-04-03T07:55:29;93292.34;;;0.50
72405;BMP280;60395;52.020;113.548;2023-04-03T07:58:34;93287.94;;;0.53
72405;BMP280;60395;52.020;113.548;2023-04-03T08:01:37;93289.84;;;0.52
72405;BMP280;60395;52.020;113.548;2023-04-03T08:04:40;93301.06;;;0.59
72405;BMP280;60395;52.020;113.548;2023-04-03T08:07:44;93288.34;;;0.65
72405;BMP280;60395;52.020;113.548;2023-04-03T08:10:52;93293.56;;;0.67
72405;BMP280;60395;52.020;113.548;2023-04-03T08:13:56;93284.63;;;0.70
72405;BMP280;60395;52.020;113.548;2023-04-03T08:17:00;93297.16;;;0.77
72405;BMP280;60395;52.020;113.548;2023-04-03T08:20:05;93288.22;;;0.80
72405;BMP280;60395;52.020;113.548;2023-04-03T08:23:10;93290.94;;;0.84
72405;BMP280;60395;52.020;113.548;2023-04-03T08:26:14;93284.16;;;0.95
72405;BMP280;60395;52.020;113.548;2023-04-03T08:29:18;93292.13;;;0.81
72405;BMP280;60395;52.020;113.548;2023-04-03T08:32:21;93285.16;;;0.66
72405;BMP280;60395;52.020;113.548;2023-04-03T08:35:24;93278.41;;;0.57
72405;BMP280;60395;52.020;113.548;2023-04-03T08:38:28;93291.19;;;0.53
72405;BMP280;60395;52.020;113.548;2023-04-03T08:41:39;93294.94;;;0.50
72405;BMP280;60395;52.020;113.548;2023-04-03T08:45:16;93298.38;;;0.37
72405;BMP280;60395;52.020;113.548;2023-04-03T08:48:29;93308.78;;;0.39
72405;BMP280;60395;52.020;113.548;2023-04-03T08:51:34;93306.09;;;0.17
72405;BMP280;60395;52.020;113.548;2023-04-03T08:54:49;93308.41;;;0.09
72405;BMP280;60395;52.020;113.548;2023-04-03T08:58:10;93294.75;;;0.07
72405;BMP280;60395;52.020;113.548;2023-04-03T09:01:36;93295.19;;;0.01
72405;BMP280;60395;52.020;113.548;2023-04-03T09:04:40;93295.44;;;-0.11
72405;BMP280;60395;52.020;113.548;2023-04-03T09:07:47;93306.13;;;-0.18
72405;BMP280;60395;52.020;113.548;2023-04-03T09:11:19;93302.44;;;-0.31
72405;BMP280;60395;52.020;113.548;2023-04-03T09:21:22;93297.59;;;-0.56
72405;BMP280;60395;52.020;113.548;2023-04-03T09:24:26;93295.50;;;-0.60
72405;BMP280;60395;52.020;113.548;2023-04-03T09:27:29;93296.56;;;-0.67
72405;BMP280;60395;52.020;113.548;2023-04-03T09:30:33;93291.66;;;-0.76
72405;BMP280;60395;52.020;113.548;2023-04-03T09:33:37;93281.75;;;-0.66
72405;BMP280;60395;52.020;113.548;2023-04-03T09:36:55;93290.50;;;-0.73
72405;BMP280;60395;52.020;113.548;2023-04-03T09:39:58;93288.25;;;-0.81
72405;BMP280;60395;52.020;113.548;2023-04-03T09:43:23;93298.84;;;-0.91
72405;BMP280;60395;52.020;113.548;2023-04-03T09:46:34;93298.09;;;-0.93
72405;BMP280;60395;52.020;113.548;2023-04-03T09:49:37;93308.81;;;-0.99
72405;BMP280;60395;52.020;113.548;2023-04-03T09:52:46;93309.34;;;-1.02
72405;BMP280;60395;52.020;113.548;2023-04-03T09:55:49;93305.28;;;-1.07
72405;BMP280;60395;52.020;113.548;2023-04-03T10:02:00;93305.03;;;-1.29
72405;BMP280;60395;52.020;113.548;2023-04-03T10:08:33;93324.97;;;-1.45
72405;BMP280;60395;52.020;113.548;2023-04-03T10:11:36;93322.44;;;-1.59
72405;BMP280;60395;52.020;113.548;2023-04-03T10:14:54;93315.53;;;-1.70
72405;BMP280;60395;52.020;113.548;2023-04-03T10:18:02;93318.09;;;-1.86
72405;BMP280;60395;52.020;113.548;2023-04-03T10:21:42;93312.91;;;-2.01
72405;BMP280;60395;52.020;113.548;2023-04-03T10:35:41;93313.06;;;-2.40
72405;BMP280;60395;52.020;113.548;2023-04-03T10:42:46;93321.41;;;-2.56
72405;BMP280;60395;52.020;113.548;2023-04-03T10:52:52;93324.25;;;-2.77
72405;BMP280;60395;52.020;113.548;2023-04-03T11:02:31;93332.13;;;-3.00
72405;BMP280;60395;52.020;113.548;2023-04-03T11:05:48;93341.63;;;-3.03
72405;BMP280;60395;52.020;113.548;2023-04-03T11:08:57;93347.75;;;-3.10
72405;BMP280;60395;52.020;113.548;2023-04-03T11:12:20;93341.25;;;-3.11
72405;BMP280;60395;52.020;113.548;2023-04-03T11:15:24;93344.31;;;-3.14
72405;BMP280;60395;52.020;113.548;2023-04-03T11:18:42;93346.47;;;-3.22
72405;BMP280;60395;52.020;113.548;2023-04-03T11:22:08;93349.03;;;-3.22
72405;BMP280;60395;52.020;113.548;2023-04-03T11:25:21;93351.72;;;-3.20
72405;BMP280;60395;52.020;113.548;2023-04-03T11:28:26;93358.63;;;-3.23
72405;BMP280;60395;52.020;113.548;2023-04-03T11:35:06;93359.78;;;-3.26
72405;BMP280;60395;52.020;113.548;2023-04-03T11:38:34;93368.53;;;-3.31
72405;BMP280;60395;52.020;113.548;2023-04-03T11:41:39;93371.09;;;-3.31
72405;BMP280;60395;52.020;113.548;2023-04-03T11:44:42;93373.56;;;-3.33
72405;BMP280;60395;52.020;113.548;2023-04-03T11:47:50;93374.59;;;-3.38
72405;BMP280;60395;52.020;113.548;2023-04-03T11:54:43;93380.09;;;-3.44
72405;BMP280;60395;52.020;113.548;2023-04-03T12:01:06;93396.94;;;-3.52
72405;BMP280;60395;52.020;113.548;2023-04-03T12:04:11;93403.22;;;-3.55
72405;BMP280;60395;52.020;113.548;2023-04-03T12:07:18;93399.31;;;-3.56
72405;BMP280;60395;52.020;113.548;2023-04-03T12:10:22;93419.66;;;-3.60
72405;BMP280;60395;52.020;113.548;2023-04-03T12:13:40;93427.38;;;-3.60
72405;BMP280;60395;52.020;113.548;2023-04-03T12:16:46;93414.06;;;-3.57
72405;BMP280;60395;52.020;113.548;2023-04-03T12:19:50;93432.84;;;-3.66
72405;BMP280;60395;52.020;113.548;2023-04-03T12:23:32;93429.28;;;-3.73
72405;BMP280;60395;52.020;113.548;2023-04-03T12:30:11;93458.22;;;-3.84
72405;BMP280;60395;52.020;113.548;2023-04-03T12:33:37;93464.91;;;-3.90
72405;BMP280;60395;52.020;113.548;2023-04-03T12:36:50;93468.28;;;-3.99
72405;BMP280;60395;52.020;113.548;2023-04-03T12:46:52;93476.44;;;-4.15
72405;BMP280;60395;52.020;113.548;2023-04-03T12:49:55;93481.56;;;-4.15
72405;BMP280;60395;52.020;113.548;2023-04-03T12:53:04;93477.63;;;-4.16
72405;BMP280;60395;52.020;113.548;2023-04-03T12:56:23;93479.41;;;-4.18
72405;BMP280;60395;52.020;113.548;2023-04-03T12:59:26;93488.78;;;-4.23
72405;BMP280;60395;52.020;113.548;2023-04-03T13:02:32;93487.91;;;-4.27
72405;BMP280;60395;52.020;113.548;2023-04-03T13:05:36;93500.19;;;-4.26
72405;BMP280;60395;52.020;113.548;2023-04-03T13:08:49;93504.63;;;-4.26
72405;BMP280;60395;52.020;113.548;2023-04-03T13:11:59;93494.16;;;-4.30
72405;BMP280;60395;52.020;113.548;2023-04-03T13:18:33;93496.69;;;-4.42
72405;BMP280;60395;52.020;113.548;2023-04-03T13:21:37;93498.59;;;-4.43
72405;BMP280;60395;52.020;113.548;2023-04-03T13:24:41;93508.59;;;-4.47
72405;BMP280;60395;52.020;113.548;2023-04-03T13:27:48;93489.00;;;-4.54
72405;BMP280;60395;52.020;113.548;2023-04-03T13:31:17;93512.06;;;-4.54
72405;BMP280;60395;52.020;113.548;2023-04-03T13:34:23;93509.56;;;-4.63
72405;BMP280;60395;52.020;113.548;2023-04-03T13:37:33;93517.50;;;-4.59
72405;BMP280;60395;52.020;113.548;2023-04-03T13:40:51;93510.72;;;-4.55
72405;BMP280;60395;52.020;113.548;2023-04-03T13:43:55;93524.06;;;-4.68
72405;BMP280;60395;52.020;113.548;2023-04-03T13:50:18;93527.91;;;-4.78
72405;BMP280;60395;52.020;113.548;2023-04-03T13:53:22;93531.06;;;-4.80
72405;BMP280;60395;52.020;113.548;2023-04-03T13:56:35;93528.38;;;-4.82
72405;BMP280;60395;52.020;113.548;2023-04-03T13:59:40;93533.63;;;-4.80
72405;BMP280;60395;52.020;113.548;2023-04-03T14:02:47;93533.94;;;-4.86
72405;BMP280;60395;52.020;113.548;2023-04-03T14:05:51;93537.22;;;-4.95
72405;BMP280;60395;52.020;113.548;2023-04-03T14:08:54;93535.63;;;-5.00
72405;BMP280;60395;52.020;113.548;2023-04-03T14:12:02;93541.31;;;-5.01
72405;BMP280;60395;52.020;113.548;2023-04-03T14:15:22;93534.88;;;-5.02
72405;BMP280;60395;52.020;113.548;2023-04-03T14:18:27;93544.06;;;-5.09
72405;BMP280;60395;52.020;113.548;2023-04-03T14:21:30;93536.03;;;-5.15
72405;BMP280;60395;52.020;113.548;2023-04-03T14:24:33;93549.28;;;-5.18
72405;BMP280;60395;52.020;113.548;2023-04-03T14:27:40;93540.56;;;-5.25
72405;BMP280;60395;52.020;113.548;2023-04-03T14:30:50;93540.16;;;-5.31
72405;BMP280;60395;52.020;113.548;2023-04-03T14:34:11;93547.03;;;-5.34
72405;BMP280;60395;52.020;113.548;2023-04-03T14:37:34;93555.03;;;-5.39
72405;BMP280;60395;52.020;113.548;2023-04-03T14:40:54;93554.22;;;-5.42
72405;BMP280;60395;52.020;113.548;2023-04-03T14:44:44;93539.28;;;-5.45
72405;BMP280;60395;52.020;113.548;2023-04-03T14:48:23;93553.56;;;-5.42
72405;BMP280;60395;52.020;113.548;2023-04-03T14:51:41;93547.41;;;-5.49
72405;BMP280;60395;52.020;113.548;2023-04-03T14:54:51;93556.06;;;-5.54
72405;BMP280;60395;52.020;113.548;2023-04-03T14:58:00;93550.69;;;-5.58
72405;BMP280;60395;52.020;113.548;2023-04-03T15:01:13;93556.22;;;-5.62
72405;BMP280;60395;52.020;113.548;2023-04-03T15:04:28;93551.97;;;-5.69
72405;BMP280;60395;52.020;113.548;2023-04-03T15:07:49;93553.72;;;-5.71
72405;BMP280;60395;52.020;113.548;2023-04-03T15:11:14;93548.44;;;-5.73
72405;BMP280;60395;52.020;113.548;2023-04-03T15:14:25;93549.41;;;-5.78
72405;BMP280;60395;52.020;113.548;2023-04-03T15:17:52;93551.06;;;-5.83
72405;BMP280;60395;52.020;113.548;2023-04-03T15:21:10;93550.38;;;-5.83
72405;BMP280;60395;52.020;113.548;2023-04-03T15:24:23;93559.00;;;-5.88
72405;BMP280;60395;52.020;113.548;2023-04-03T15:27:35;93557.41;;;-5.93
72405;BMP280;60395;52.020;113.548;2023-04-03T15:31:06;93556.38;;;-6.00
72405;BMP280;60395;52.020;113.548;2023-04-03T15:34:16;93557.84;;;-6.07
72405;BMP280;60395;52.020;113.548;2023-04-03T15:37:29;93542.28;;;-6.20
72405;BMP280;60395;52.020;113.548;2023-04-03T15:40:43;93553.69;;;-6.12
72405;BMP280;60395;52.020;113.548;2023-04-03T15:43:54;93559.25;;;-6.15
72405;BMP280;60395;52.020;113.548;2023-04-03T15:47:06;93551.41;;;-6.17
72405;BMP280;60395;52.020;113.548;2023-04-03T15:53:48;93543.13;;;-6.27
72405;BMP280;60395;52.020;113.548;2023-04-03T15:56:57;93540.97;;;-6.31
72405;BMP280;60395;52.020;113.548;2023-04-03T16:00:09;93538.28;;;-6.33
72405;BMP280;60395;52.020;113.548;2023-04-03T16:03:20;93537.34;;;-6.38
72405;BMP280;60395;52.020;113.548;2023-04-03T16:06:30;93544.25;;;-6.40
72405;BMP280;60395;52.020;113.548;2023-04-03T16:09:50;93544.59;;;-6.44
72405;BMP280;60395;52.020;113.548;2023-04-03T16:13:23;93545.03;;;-6.47
72405;BMP280;60395;52.020;113.548;2023-04-03T16:16:39;93537.66;;;-6.53
72405;BMP280;60395;52.020;113.548;2023-04-03T16:19:59;93537.38;;;-6.57
72405;BMP280;60395;52.020;113.548;2023-04-03T16:23:13;93532.66;;;-6.60
72405;BMP280;60395;52.020;113.548;2023-04-03T16:26:54;93531.22;;;-6.63
72405;BMP280;60395;52.020;113.548;2023-04-03T16:30:02;93535.09;;;-6.62
72405;BMP280;60395;52.020;113.548;2023-04-03T16:33:10;93522.19;;;-6.64
72405;BMP280;60395;52.020;113.548;2023-04-03T16:36:42;93527.72;;;-6.68
72405;BMP280;60395;52.020;113.548;2023-04-03T16:39:53;93527.56;;;-6.70
72405;BMP280;60395;52.020;113.548;2023-04-03T16:43:05;93528.09;;;-6.72
72405;BMP280;60395;52.020;113.548;2023-04-03T16:49:53;93519.50;;;-6.76
72405;BMP280;60395;52.020;113.548;2023-04-03T16:53:06;93522.59;;;-6.78
72405;BMP280;60395;52.020;113.548;2023-04-03T16:56:21;93523.84;;;-6.79
72405;BMP280;60395;52.020;113.548;2023-04-03T16:59:28;93517.50;;;-6.78
72405;BMP280;60395;52.020;113.548;2023-04-03T17:02:43;93512.94;;;-6.79
72405;BMP280;60395;52.020;113.548;2023-04-03T17:06:02;93519.13;;;-6.82
72405;BMP280;60395;52.020;113.548;2023-04-03T17:09:22;93517.25;;;-6.82
72405;BMP280;60395;52.020;113.548;2023-04-03T17:12:32;93518.31;;;-6.85
72405;BMP280;60395;52.020;113.548;2023-04-03T17:15:44;93511.19;;;-6.86
72405;BMP280;60395;52.020;113.548;2023-04-03T17:19:00;93517.75;;;-6.83
72405;BMP280;60395;52.020;113.548;2023-04-03T17:22:17;93508.78;;;-6.84
72405;BMP280;60395;52.020;113.548;2023-04-03T17:25:25;93511.03;;;-6.88
72405;BMP280;60395;52.020;113.548;2023-04-03T17:28:37;93508.25;;;-6.92
72405;BMP280;60395;52.020;113.548;2023-04-03T17:31:56;93501.78;;;-6.93
72405;BMP280;60395;52.020;113.548;2023-04-03T17:35:08;93500.44;;;-6.94
72405;BMP280;60395;52.020;113.548;2023-04-03T17:38:22;93501.50;;;-6.97
72405;BMP280;60395;52.020;113.548;2023-04-03T17:41:34;93504.72;;;-6.97
72405;BMP280;60395;52.020;113.548;2023-04-03T17:44:44;93490.09;;;-6.96
72405;BMP280;60395;52.020;113.548;2023-04-03T17:47:56;93496.94;;;-6.99
72405;BMP280;60395;52.020;113.548;2023-04-03T17:51:11;93495.47;;;-7.02
72405;BMP280;60395;52.020;113.548;2023-04-03T17:54:20;93485.94;;;-7.01
72405;BMP280;60395;52.020;113.548;2023-04-03T17:57:30;93491.72;;;-7.01
72405;BMP280;60395;52.020;113.548;2023-04-03T18:00:36;93479.34;;;-7.04
72405;BMP280;60395;52.020;113.548;2023-04-03T18:04:03;93478.81;;;-7.03
72405;BMP280;60395;52.020;113.548;2023-04-03T18:07:09;93471.69;;;-7.04
72405;BMP280;60395;52.020;113.548;2023-04-03T18:10:21;93461.63;;;-7.02
72405;BMP280;60395;52.020;113.548;2023-04-03T18:13:35;93455.31;;;-7.01
72405;BMP280;60395;52.020;113.548;2023-04-03T18:16:51;93457.72;;;-7.03
72405;BMP280;60395;52.020;113.548;2023-04-03T18:20:04;93461.38;;;-7.06
72405;BMP280;60395;52.020;113.548;2023-04-03T18:23:17;93446.56;;;-7.08
72405;BMP280;60395;52.020;113.548;2023-04-03T18:26:26;93447.50;;;-7.13
72405;BMP280;60395;52.020;113.548;2023-04-03T18:29:45;93446.41;;;-7.10
72405;BMP280;60395;52.020;113.548;2023-04-03T18:33:07;93446.84;;;-7.14
72405;BMP280;60395;52.020;113.548;2023-04-03T18:36:33;93447.91;;;-7.17
72405;BMP280;60395;52.020;113.548;2023-04-03T18:39:57;93447.63;;;-7.21
72405;BMP280;60395;52.020;113.548;2023-04-03T18:43:19;93448.16;;;-7.22
72405;BMP280;60395;52.020;113.548;2023-04-03T18:46:38;93445.50;;;-7.24
72405;BMP280;60395;52.020;113.548;2023-04-03T18:49:55;93446.69;;;-7.25
72405;BMP280;60395;52.020;113.548;2023-04-03T18:53:06;93441.34;;;-7.29
72405;BMP280;60395;52.020;113.548;2023-04-03T18:56:37;93438.47;;;-7.33
72405;BMP280;60395;52.020;113.548;2023-04-03T18:59:55;93437.44;;;-7.40
72405;BMP280;60395;52.020;113.548;2023-04-03T19:03:09;93430.31;;;-7.41
72405;BMP280;60395;52.020;113.548;2023-04-03T19:06:31;93430.81;;;-7.43
72405;BMP280;60395;52.020;113.548;2023-04-03T19:09:43;93432.88;;;-7.41
72405;BMP280;60395;52.020;113.548;2023-04-03T19:12:55;93438.47;;;-7.43
72405;BMP280;60395;52.020;113.548;2023-04-03T19:16:15;93429.38;;;-7.46
72405;BMP280;60395;52.020;113.548;2023-04-03T19:19:21;93431.78;;;-7.48
72405;BMP280;60395;52.020;113.548;2023-04-03T19:22:42;93430.44;;;-7.49
72405;BMP280;60395;52.020;113.548;2023-04-03T19:26:02;93432.72;;;-7.53
72405;BMP280;60395;52.020;113.548;2023-04-03T19:29:27;93441.97;;;-7.58
72405;BMP280;60395;52.020;113.548;2023-04-03T19:32:40;93433.50;;;-7.60
72405;BMP280;60395;52.020;113.548;2023-04-03T19:36:15;93424.41;;;-7.63
72405;BMP280;60395;52.020;113.548;2023-04-03T19:39:23;93428.66;;;-7.66
72405;BMP280;60395;52.020;113.548;2023-04-03T19:42:51;93421.00;;;-7.66
72405;BMP280;60395;52.020;113.548;2023-04-03T19:46:14;93426.50;;;-7.69
72405;BMP280;60395;52.020;113.548;2023-04-03T19:49:30;93430.13;;;-7.72
72405;BMP280;60395;52.020;113.548;2023-04-03T19:52:45;93414.81;;;-7.72
72405;BMP280;60395;52.020;113.548;2023-04-03T19:55:55;93421.28;;;-7.71
72405;BMP280;60395;52.020;113.548;2023-04-03T19:59:05;93422.88;;;-7.66
72405;BMP280;60395;52.020;113.548;2023-04-03T20:02:16;93418.34;;;-7.68
72405;BMP280;60395;52.020;113.548;2023-04-03T20:05:24;93419.00;;;-7.67
72405;BMP280;60395;52.020;113.548;2023-04-03T20:08:39;93416.47;;;-7.67
72405;BMP280;60395;52.020;113.548;2023-04-03T20:12:00;93417.09;;;-7.67
72405;BMP280;60395;52.020;113.548;2023-04-03T20:15:19;93413.34;;;-7.66
72405;BMP280;60395;52.020;113.548;2023-04-03T20:18:31;93413.91;;;-7.67
72405;BMP280;60395;52.020;113.548;2023-04-03T20:21:47;93418.44;;;-7.66
72405;BMP280;60395;52.020;113.548;2023-04-03T20:25:12;93415.78;;;-7.68
72405;BMP280;60395;52.020;113.548;2023-04-03T20:28:54;93407.19;;;-7.72
72405;BMP280;60395;52.020;113.548;2023-04-03T20:32:10;93401.56;;;-7.71
72405;BMP280;60395;52.020;113.548;2023-04-03T20:35:37;93396.97;;;-7.82
72405;BMP280;60395;52.020;113.548;2023-04-03T20:38:46;93393.06;;;-7.83
72405;BMP280;60395;52.020;113.548;2023-04-03T20:41:55;93399.75;;;-7.88
72405;BMP280;60395;52.020;113.548;2023-04-03T20:45:18;93399.94;;;-7.86
72405;BMP280;60395;52.020;113.548;2023-04-03T20:48:40;93404.88;;;-7.88
72405;BMP280;60395;52.020;113.548;2023-04-03T20:51:46;93390.25;;;-7.87
72405;BMP280;60395;52.020;113.548;2023-04-03T20:54:59;93397.22;;;-7.88
72405;BMP280;60395;52.020;113.548;2023-04-03T20:58:05;93392.81;;;-7.87
72405;BMP280;60395;52.020;113.548;2023-04-03T21:01:24;93392.00;;;-7.90
72405;BMP280;60395;52.020;113.548;2023-04-03T21:04:42;93400.72;;;-7.93
72405;BMP280;60395;52.020;113.548;2023-04-03T21:19:07;93393.88;;;-7.90
72405;BMP280;60395;52.020;113.548;2023-04-03T21:22:29;93396.28;;;-7.92
72405;BMP280;60395;52.020;113.548;2023-04-03T21:25:48;93400.03;;;-7.93
72405;BMP280;60395;52.020;113.548;2023-04-03T21:29:00;93405.81;;;-7.93
72405;BMP280;60395;52.020;113.548;2023-04-03T21:32:33;93398.16;;;-7.93
72405;BMP280;60395;52.020;113.548;2023-04-03T21:35:56;93401.38;;;-7.92
72405;BMP280;60395;52.020;113.548;2023-04-03T21:39:20;93398.84;;;-7.92
72405;BMP280;60395;52.020;113.548;2023-04-03T21:42:39;93396.28;;;-7.92
72405;BMP280;60395;52.020;113.548;2023-04-03T21:46:04;93403.78;;;-7.94
72405;BMP280;60395;52.020;113.548;2023-04-03T21:49:28;93403.66;;;-7.96
72405;BMP280;60395;52.020;113.548;2023-04-03T21:52:47;93401.47;;;-8.00
72405;BMP280;60395;52.020;113.548;2023-04-03T21:56:02;93406.47;;;-8.02
72405;BMP280;60395;52.020;113.548;2023-04-03T21:59:25;93403.38;;;-8.00
72405;BMP280;60395;52.020;113.548;2023-04-03T22:02:41;93411.84;;;-7.98
72405;BMP280;60395;52.020;113.548;2023-04-03T22:06:16;93409.81;;;-7.99
72405;BMP280;60395;52.020;113.548;2023-04-03T22:09:33;93402.31;;;-7.97
72405;BMP280;60395;52.020;113.548;2023-04-03T22:12:38;93396.03;;;-7.96
72405;BMP280;60395;52.020;113.548;2023-04-03T22:15:54;93396.97;;;-7.92
72405;BMP280;60395;52.020;113.548;2023-04-03T22:19:05;93400.06;;;-7.84
72405;BMP280;60395;52.020;113.548;2023-04-03T22:22:12;93400.63;;;-7.75
72405;BMP280;60395;52.020;113.548;2023-04-03T22:25:20;93403.16;;;-7.66
72405;BMP280;60395;52.020;113.548;2023-04-03T22:28:41;93403.84;;;-7.56
72405;BMP280;60395;52.020;113.548;2023-04-03T22:31:45;93404.91;;;-7.49
72405;BMP280;60395;52.020;113.548;2023-04-03T22:34:48;93403.97;;;-7.44
72405;BMP280;60395;52.020;113.548;2023-04-03T22:37:51;93404.09;;;-7.32
72405;BMP280;60395;52.020;113.548;2023-04-03T22:41:00;93408.41;;;-7.25
72405;BMP280;60395;52.020;113.548;2023-04-03T22:44:03;93409.50;;;-7.19
72405;BMP280;60395;52.020;113.548;2023-04-03T22:47:08;93399.13;;;-7.11
72405;BMP280;60395;52.020;113.548;2023-04-03T22:50:11;93408.25;;;-7.08
72405;BMP280;60395;52.020;113.548;2023-04-03T22:53:15;93406.91;;;-6.99
72405;BMP280;60395;52.020;113.548;2023-04-03T22:56:18;93411.28;;;-6.30
72405;BMP280;60395;52.020;113.548;2023-04-03T22:59:21;93420.75;;;-4.00
72405;BMP280;60395;52.020;113.548;2023-04-03T23:02:25;93428.06;;;-1.30
72405;BMP280;60395;52.020;113.548;2023-04-03T23:05:28;93430.63;;;1.04
72405;BMP280;60395;52.020;113.548;2023-04-03T23:08:32;93432.13;;;2.57
72405;BMP280;60395;52.020;113.548;2023-04-03T23:11:36;93436.13;;;3.91
72405;BMP280;60395;52.020;113.548;2023-04-03T23:14:39;93441.56;;;4.63
72405;BMP280;60395;52.020;113.548;2023-04-03T23:17:43;93438.41;;;5.39
72405;BMP280;60395;52.020;113.548;2023-04-03T23:20:46;93434.94;;;6.10
72405;BMP280;60395;52.020;113.548;2023-04-03T23:23:50;93428.09;;;6.91
72405;BMP280;60395;52.020;113.548;2023-04-03T23:26:53;93428.59;;;7.43
72405;BMP280;60395;52.020;113.548;2023-04-03T23:29:57;93432.41;;;8.27
72405;BMP280;60395;52.020;113.548;2023-04-03T23:33:00;93434.59;;;8.83
72405;BMP280;60395;52.020;113.548;2023-04-03T23:36:07;93428.13;;;9.64
72405;BMP280;60395;52.020;113.548;2023-04-03T23:39:10;93432.75;;;9.76
72405;BMP280;60395;52.020;113.548;2023-04-03T23:42:13;93440.53;;;10.20
72405;BMP280;60395;52.020;113.548;2023-04-03T23:45:17;93449.69;;;10.32
72405;BMP280;60395;52.020;113.548;2023-04-03T23:48:20;93448.88;;;10.77
72405;BMP280;60395;52.020;113.548;2023-04-03T23:51:23;93449.81;;;11.39
72405;BMP280;60395;52.020;113.548;2023-04-03T23:54:26;93454.84;;;11.67
72405;BMP280;60395;52.020;113.548;2023-04-03T23:57:30;93451.50;;;11.73
